sensor_id;sensor_type;location;lat;lon;timestamp;P1;durP1;ratioP1;P2;durP2;ratioP2
13439;SDS011;6792;57.698;11.946;2023-07-20T00:00:46;5.50;;;1.40;;
13439;SDS011;6792;57.698;11.946;2023-07-20T00:03:17;6.35;;;1.32;;
13439;SDS011;6792;57.698;11.946;2023-07-20T00:05:48;7.55;;;1.40;;
13439;SDS011;6792;57.698;11.946;2023-07-20T00:08:18;5.72;;;1.37;;
13439;SDS011;6792;57.698;11.946;2023-07-20T00:10:51;9.23;;;2.12;;
13439;SDS011;6792;57.698;11.946;2023-07-20T00:13:20;4.95;;;1.35;;
13439;SDS011;6792;57.698;11.946;2023-07-20T00:15:50;7.92;;;1.60;;
13439;SDS011;6792;57.698;11.946;2023-07-20T00:18:20;8.23;;;1.95;;
13439;SDS011;6792;57.698;11.946;2023-07-20T00:20:50;5.95;;;1.37;;
13439;SDS011;6792;57.698;11.946;2023-07-20T00:23:20;4.58;;;1.20;;
13439;SDS011;6792;57.698;11.946;2023-07-20T00:25:49;6.75;;;1.50;;
13439;SDS011;6792;57.698;11.946;2023-07-20T00:28:18;7.92;;;1.55;;
13439;SDS011;6792;57.698;11.946;2023-07-20T00:30:48;6.30;;;1.42;;
13439;SDS011;6792;57.698;11.946;2023-07-20T00:33:17;6.75;;;1.27;;
13439;SDS011;6792;57.698;11.946;2023-07-20T00:35:46;6.95;;;1.20;;
13439;SDS011;6792;57.698;11.946;2023-07-20T00:38:16;7.90;;;1.80;;
13439;SDS011;6792;57.698;11.946;2023-07-20T00:40:45;4.87;;;0.98;;
13439;SDS011;6792;57.698;11.946;2023-07-20T00:43:15;5.37;;;1.40;;
13439;SDS011;6792;57.698;11.946;2023-07-20T00:45:45;5.65;;;1.35;;
13439;SDS011;6792;57.698;11.946;2023-07-20T00:48:15;4.58;;;1.12;;
13439;SDS011;6792;57.698;11.946;2023-07-20T00:50:44;9.48;;;1.50;;
13439;SDS011;6792;57.698;11.946;2023-07-20T00:53:14;6.37;;;1.40;;
13439;SDS011;6792;57.698;11.946;2023-07-20T00:55:45;4.50;;;1.55;;
13439;SDS011;6792;57.698;11.946;2023-07-20T00:58:15;5.58;;;1.30;;
13439;SDS011;6792;57.698;11.946;2023-07-20T01:00:44;4.53;;;1.22;;
13439;SDS011;6792;57.698;11.946;2023-07-20T01:03:14;4.25;;;1.15;;
13439;SDS011;6792;57.698;11.946;2023-07-20T01:05:45;5.58;;;1.25;;
13439;SDS011;6792;57.698;11.946;2023-07-20T01:08:27;3.08;;;1.20;;
13439;SDS011;6792;57.698;11.946;2023-07-20T01:10:52;3.90;;;1.30;;
13439;SDS011;6792;57.698;11.946;2023-07-20T01:13:23;8.08;;;1.50;;
13439;SDS011;6792;57.698;11.946;2023-07-20T01:15:56;4.62;;;0.82;;
13439;SDS011;6792;57.698;11.946;2023-07-20T01:18:26;4.00;;;1.17;;
13439;SDS011;6792;57.698;11.946;2023-07-20T01:20:57;5.05;;;1.10;;
13439;SDS011;6792;57.698;11.946;2023-07-20T01:23:41;4.15;;;1.20;;
13439;SDS011;6792;57.698;11.946;2023-07-20T01:26:25;2.52;;;0.95;;
13439;SDS011;6792;57.698;11.946;2023-07-20T01:29:11;5.83;;;1.82;;
13439;SDS011;6792;57.698;11.946;2023-07-20T01:31:47;5.30;;;1.12;;
13439;SDS011;6792;57.698;11.946;2023-07-20T01:34:22;5.45;;;1.22;;
13439;SDS011;6792;57.698;11.946;2023-07-20T01:36:53;7.42;;;1.45;;
13439;SDS011;6792;57.698;11.946;2023-07-20T01:39:23;4.67;;;1.12;;
13439;SDS011;6792;57.698;11.946;2023-07-20T01:41:53;5.03;;;1.27;;
13439;SDS011;6792;57.698;11.946;2023-07-20T01:44:22;5.53;;;1.00;;
13439;SDS011;6792;57.698;11.946;2023-07-20T01:46:51;4.60;;;1.35;;
13439;SDS011;6792;57.698;11.946;2023-07-20T01:49:20;5.28;;;1.40;;
13439;SDS011;6792;57.698;11.946;2023-07-20T01:51:53;5.30;;;1.20;;
13439;SDS011;6792;57.698;11.946;2023-07-20T01:54:22;5.28;;;1.07;;
13439;SDS011;6792;57.698;11.946;2023-07-20T01:56:52;6.58;;;1.25;;
13439;SDS011;6792;57.698;11.946;2023-07-20T01:59:21;4.85;;;1.17;;
13439;SDS011;6792;57.698;11.946;2023-07-20T02:01:50;6.17;;;1.00;;
13439;SDS011;6792;57.698;11.946;2023-07-20T02:04:20;2.70;;;1.47;;
13439;SDS011;6792;57.698;11.946;2023-07-20T02:06:49;3.33;;;0.95;;
13439;SDS011;6792;57.698;11.946;2023-07-20T02:09:22;3.65;;;1.20;;
13439;SDS011;6792;57.698;11.946;2023-07-20T02:11:51;5.65;;;0.78;;
13439;SDS011;6792;57.698;11.946;2023-07-20T02:14:20;4.60;;;1.17;;
13439;SDS011;6792;57.698;11.946;2023-07-20T02:16:49;6.08;;;0.95;;
13439;SDS011;6792;57.698;11.946;2023-07-20T02:19:21;4.55;;;0.90;;
13439;SDS011;6792;57.698;11.946;2023-07-20T02:21:50;6.20;;;0.98;;
13439;SDS011;6792;57.698;11.946;2023-07-20T02:24:19;3.83;;;0.98;;
13439;SDS011;6792;57.698;11.946;2023-07-20T02:26:48;3.92;;;0.90;;
13439;SDS011;6792;57.698;11.946;2023-07-20T02:29:21;6.17;;;1.15;;
13439;SDS011;6792;57.698;11.946;2023-07-20T02:31:53;6.03;;;1.12;;
13439;SDS011;6792;57.698;11.946;2023-07-20T02:34:22;4.47;;;1.00;;
13439;SDS011;6792;57.698;11.946;2023-07-20T02:36:51;4.28;;;1.25;;
13439;SDS011;6792;57.698;11.946;2023-07-20T02:39:22;4.60;;;1.32;;
13439;SDS011;6792;57.698;11.946;2023-07-20T02:41:51;4.42;;;0.98;;
13439;SDS011;6792;57.698;11.946;2023-07-20T02:44:20;6.42;;;1.17;;
13439;SDS011;6792;57.698;11.946;2023-07-20T02:46:50;6.53;;;1.55;;
13439;SDS011;6792;57.698;11.946;2023-07-20T02:49:19;4.97;;;1.10;;
13439;SDS011;6792;57.698;11.946;2023-07-20T02:51:48;6.17;;;1.20;;
13439;SDS011;6792;57.698;11.946;2023-07-20T02:54:18;7.15;;;1.27;;
13439;SDS011;6792;57.698;11.946;2023-07-20T02:56:47;2.62;;;1.37;;
13439;SDS011;6792;57.698;11.946;2023-07-20T02:59:16;6.05;;;1.32;;
13439;SDS011;6792;57.698;11.946;2023-07-20T03:01:46;6.58;;;1.07;;
13439;SDS011;6792;57.698;11.946;2023-07-20T03:04:15;4.08;;;1.20;;
13439;SDS011;6792;57.698;11.946;2023-07-20T03:06:44;6.22;;;1.27;;
13439;SDS011;6792;57.698;11.946;2023-07-20T03:09:13;2.05;;;0.88;;
13439;SDS011;6792;57.698;11.946;2023-07-20T03:11:43;4.55;;;1.25;;
13439;SDS011;6792;57.698;11.946;2023-07-20T03:14:12;4.42;;;1.20;;
13439;SDS011;6792;57.698;11.946;2023-07-20T03:16:41;5.58;;;1.02;;
13439;SDS011;6792;57.698;11.946;2023-07-20T03:19:10;3.50;;;0.93;;
13439;SDS011;6792;57.698;11.946;2023-07-20T03:21:40;2.05;;;0.90;;
13439;SDS011;6792;57.698;11.946;2023-07-20T03:24:09;3.50;;;0.90;;
13439;SDS011;6792;57.698;11.946;2023-07-20T03:26:38;5.95;;;0.90;;
13439;SDS011;6792;57.698;11.946;2023-07-20T03:29:07;4.47;;;0.90;;
13439;SDS011;6792;57.698;11.946;2023-07-20T03:31:37;2.52;;;0.78;;
13439;SDS011;6792;57.698;11.946;2023-07-20T03:34:06;4.62;;;0.80;;
13439;SDS011;6792;57.698;11.946;2023-07-20T03:36:35;3.33;;;0.82;;
13439;SDS011;6792;57.698;11.946;2023-07-20T03:39:04;3.98;;;0.80;;
13439;SDS011;6792;57.698;11.946;2023-07-20T03:41:33;4.42;;;0.90;;
13439;SDS011;6792;57.698;11.946;2023-07-20T03:44:03;3.17;;;1.00;;
13439;SDS011;6792;57.698;11.946;2023-07-20T03:46:32;2.02;;;0.60;;
13439;SDS011;6792;57.698;11.946;2023-07-20T03:49:02;3.50;;;0.75;;
13439;SDS011;6792;57.698;11.946;2023-07-20T03:51:32;3.10;;;1.00;;
13439;SDS011;6792;57.698;11.946;2023-07-20T03:54:01;1.85;;;0.72;;
13439;SDS011;6792;57.698;11.946;2023-07-20T03:56:31;3.35;;;0.70;;
13439;SDS011;6792;57.698;11.946;2023-07-20T03:59:01;5.67;;;0.98;;
13439;SDS011;6792;57.698;11.946;2023-07-20T04:01:31;4.15;;;0.82;;
13439;SDS011;6792;57.698;11.946;2023-07-20T04:04:04;1.05;;;0.65;;
13439;SDS011;6792;57.698;11.946;2023-07-20T04:06:34;4.37;;;0.78;;
13439;SDS011;6792;57.698;11.946;2023-07-20T04:09:03;4.83;;;0.80;;
13439;SDS011;6792;57.698;11.946;2023-07-20T04:11:33;4.90;;;0.98;;
13439;SDS011;6792;57.698;11.946;2023-07-20T04:14:02;3.87;;;0.93;;
13439;SDS011;6792;57.698;11.946;2023-07-20T04:16:31;3.10;;;0.70;;
13439;SDS011;6792;57.698;11.946;2023-07-20T04:19:00;2.83;;;0.62;;
13439;SDS011;6792;57.698;11.946;2023-07-20T04:21:30;4.90;;;0.90;;
13439;SDS011;6792;57.698;11.946;2023-07-20T04:23:59;2.98;;;0.60;;
13439;SDS011;6792;57.698;11.946;2023-07-20T04:26:31;3.47;;;0.70;;
13439;SDS011;6792;57.698;11.946;2023-07-20T04:29:00;2.50;;;0.70;;
13439;SDS011;6792;57.698;11.946;2023-07-20T04:31:30;1.72;;;0.53;;
13439;SDS011;6792;57.698;11.946;2023-07-20T04:33:59;3.62;;;0.40;;
13439;SDS011;6792;57.698;11.946;2023-07-20T04:36:29;3.65;;;0.70;;
13439;SDS011;6792;57.698;11.946;2023-07-20T04:38:58;3.58;;;0.47;;
13439;SDS011;6792;57.698;11.946;2023-07-20T04:41:27;1.80;;;0.78;;
13439;SDS011;6792;57.698;11.946;2023-07-20T04:43:56;3.02;;;0.85;;
13439;SDS011;6792;57.698;11.946;2023-07-20T04:46:25;1.87;;;0.45;;
13439;SDS011;6792;57.698;11.946;2023-07-20T04:48:55;3.50;;;0.53;;
13439;SDS011;6792;57.698;11.946;2023-07-20T04:51:24;3.27;;;0.60;;
13439;SDS011;6792;57.698;11.946;2023-07-20T04:53:53;2.00;;;0.50;;
13439;SDS011;6792;57.698;11.946;2023-07-20T04:56:22;6.70;;;0.78;;
13439;SDS011;6792;57.698;11.946;2023-07-20T04:58:52;5.50;;;0.62;;
13439;SDS011;6792;57.698;11.946;2023-07-20T05:01:21;3.77;;;0.53;;
13439;SDS011;6792;57.698;11.946;2023-07-20T05:03:50;3.77;;;0.60;;
13439;SDS011;6792;57.698;11.946;2023-07-20T05:06:20;3.08;;;0.72;;
13439;SDS011;6792;57.698;11.946;2023-07-20T05:08:50;2.20;;;0.50;;
13439;SDS011;6792;57.698;11.946;2023-07-20T05:11:20;4.08;;;0.90;;
13439;SDS011;6792;57.698;11.946;2023-07-20T05:13:50;5.25;;;0.80;;
13439;SDS011;6792;57.698;11.946;2023-07-20T05:16:21;7.17;;;0.80;;
13439;SDS011;6792;57.698;11.946;2023-07-20T05:18:50;2.40;;;0.90;;
13439;SDS011;6792;57.698;11.946;2023-07-20T05:21:22;2.83;;;0.60;;
13439;SDS011;6792;57.698;11.946;2023-07-20T05:23:51;2.50;;;0.50;;
13439;SDS011;6792;57.698;11.946;2023-07-20T05:26:20;2.75;;;0.50;;
13439;SDS011;6792;57.698;11.946;2023-07-20T05:28:49;4.60;;;1.05;;
13439;SDS011;6792;57.698;11.946;2023-07-20T05:31:19;1.55;;;0.50;;
13439;SDS011;6792;57.698;11.946;2023-07-20T05:33:48;1.65;;;0.57;;
13439;SDS011;6792;57.698;11.946;2023-07-20T05:36:21;2.62;;;0.80;;
13439;SDS011;6792;57.698;11.946;2023-07-20T05:38:53;2.33;;;0.70;;
13439;SDS011;6792;57.698;11.946;2023-07-20T05:41:22;9.50;;;1.17;;
13439;SDS011;6792;57.698;11.946;2023-07-20T05:43:51;7.08;;;1.00;;
13439;SDS011;6792;57.698;11.946;2023-07-20T05:46:20;2.80;;;0.60;;
13439;SDS011;6792;57.698;11.946;2023-07-20T05:48:50;4.60;;;1.20;;
13439;SDS011;6792;57.698;11.946;2023-07-20T05:51:23;4.95;;;0.78;;
13439;SDS011;6792;57.698;11.946;2023-07-20T05:53:55;3.55;;;1.00;;
13439;SDS011;6792;57.698;11.946;2023-07-20T05:56:24;2.50;;;0.55;;
13439;SDS011;6792;57.698;11.946;2023-07-20T05:58:53;5.00;;;0.78;;
13439;SDS011;6792;57.698;11.946;2023-07-20T06:01:23;2.75;;;0.70;;
13439;SDS011;6792;57.698;11.946;2023-07-20T06:03:53;2.92;;;0.70;;
13439;SDS011;6792;57.698;11.946;2023-07-20T06:06:22;3.47;;;0.68;;
13439;SDS011;6792;57.698;11.946;2023-07-20T06:08:52;2.87;;;0.70;;
13439;SDS011;6792;57.698;11.946;2023-07-20T06:11:21;6.03;;;1.00;;
13439;SDS011;6792;57.698;11.946;2023-07-20T06:13:52;5.25;;;1.07;;
13439;SDS011;6792;57.698;11.946;2023-07-20T06:16:22;8.58;;;1.60;;
13439;SDS011;6792;57.698;11.946;2023-07-20T06:18:51;5.05;;;1.82;;
13439;SDS011;6792;57.698;11.946;2023-07-20T06:21:20;3.65;;;1.20;;
13439;SDS011;6792;57.698;11.946;2023-07-20T06:23:52;4.78;;;1.20;;
13439;SDS011;6792;57.698;11.946;2023-07-20T06:26:21;3.67;;;0.85;;
13439;SDS011;6792;57.698;11.946;2023-07-20T06:28:50;4.60;;;0.80;;
13439;SDS011;6792;57.698;11.946;2023-07-20T06:31:22;3.85;;;0.80;;
13439;SDS011;6792;57.698;11.946;2023-07-20T06:33:51;5.75;;;0.93;;
13439;SDS011;6792;57.698;11.946;2023-07-20T06:36:20;3.22;;;0.75;;
13439;SDS011;6792;57.698;11.946;2023-07-20T06:38:49;3.95;;;1.00;;
13439;SDS011;6792;57.698;11.946;2023-07-20T06:41:19;3.52;;;0.90;;
13439;SDS011;6792;57.698;11.946;2023-07-20T06:43:48;4.35;;;0.80;;
13439;SDS011;6792;57.698;11.946;2023-07-20T06:46:18;3.87;;;0.80;;
13439;SDS011;6792;57.698;11.946;2023-07-20T06:48:48;5.70;;;1.22;;
13439;SDS011;6792;57.698;11.946;2023-07-20T06:51:20;2.75;;;0.60;;
13439;SDS011;6792;57.698;11.946;2023-07-20T06:53:51;2.27;;;0.50;;
13439;SDS011;6792;57.698;11.946;2023-07-20T06:56:20;3.52;;;0.70;;
13439;SDS011;6792;57.698;11.946;2023-07-20T06:58:52;2.08;;;0.42;;
13439;SDS011;6792;57.698;11.946;2023-07-20T07:01:21;5.50;;;0.70;;
13439;SDS011;6792;57.698;11.946;2023-07-20T07:03:50;2.40;;;0.42;;
13439;SDS011;6792;57.698;11.946;2023-07-20T07:06:21;3.58;;;0.40;;
13439;SDS011;6792;57.698;11.946;2023-07-20T07:08:50;2.95;;;0.47;;
13439;SDS011;6792;57.698;11.946;2023-07-20T07:11:20;2.22;;;0.80;;
13439;SDS011;6792;57.698;11.946;2023-07-20T07:13:56;3.40;;;0.40;;
13439;SDS011;6792;57.698;11.946;2023-07-20T07:16:26;1.95;;;0.40;;
13439;SDS011;6792;57.698;11.946;2023-07-20T07:18:55;3.50;;;0.70;;
13439;SDS011;6792;57.698;11.946;2023-07-20T07:21:24;2.40;;;0.65;;
13439;SDS011;6792;57.698;11.946;2023-07-20T07:23:53;0.85;;;0.42;;
13439;SDS011;6792;57.698;11.946;2023-07-20T07:26:25;2.90;;;0.60;;
13439;SDS011;6792;57.698;11.946;2023-07-20T07:28:54;2.45;;;0.60;;
13439;SDS011;6792;57.698;11.946;2023-07-20T07:31:25;4.53;;;0.80;;
13439;SDS011;6792;57.698;11.946;2023-07-20T07:33:56;2.60;;;0.78;;
13439;SDS011;6792;57.698;11.946;2023-07-20T07:36:25;4.30;;;0.93;;
13439;SDS011;6792;57.698;11.946;2023-07-20T07:38:55;1.98;;;0.60;;
13439;SDS011;6792;57.698;11.946;2023-07-20T07:41:24;3.00;;;0.90;;
13439;SDS011;6792;57.698;11.946;2023-07-20T07:43:53;3.42;;;0.50;;
13439;SDS011;6792;57.698;11.946;2023-07-20T07:46:36;2.60;;;0.40;;
13439;SDS011;6792;57.698;11.946;2023-07-20T07:49:05;5.62;;;0.82;;
13439;SDS011;6792;57.698;11.946;2023-07-20T07:51:35;3.80;;;0.62;;
13439;SDS011;6792;57.698;11.946;2023-07-20T07:54:04;2.27;;;0.62;;
13439;SDS011;6792;57.698;11.946;2023-07-20T07:56:33;2.10;;;0.50;;
13439;SDS011;6792;57.698;11.946;2023-07-20T07:59:02;3.62;;;0.60;;
13439;SDS011;6792;57.698;11.946;2023-07-20T08:01:31;2.27;;;0.70;;
13439;SDS011;6792;57.698;11.946;2023-07-20T08:04:01;2.47;;;0.60;;
13439;SDS011;6792;57.698;11.946;2023-07-20T08:06:30;1.37;;;0.60;;
13439;SDS011;6792;57.698;11.946;2023-07-20T08:08:59;2.00;;;0.55;;
13439;SDS011;6792;57.698;11.946;2023-07-20T08:11:29;5.25;;;0.88;;
13439;SDS011;6792;57.698;11.946;2023-07-20T08:14:00;1.75;;;0.50;;
13439;SDS011;6792;57.698;11.946;2023-07-20T08:16:29;4.50;;;0.50;;
13439;SDS011;6792;57.698;11.946;2023-07-20T08:18:59;1.95;;;0.60;;
13439;SDS011;6792;57.698;11.946;2023-07-20T08:21:29;4.67;;;0.93;;
13439;SDS011;6792;57.698;11.946;2023-07-20T08:23:58;3.35;;;0.50;;
13439;SDS011;6792;57.698;11.946;2023-07-20T08:26:27;7.37;;;0.57;;
13439;SDS011;6792;57.698;11.946;2023-07-20T08:28:56;1.67;;;0.30;;
13439;SDS011;6792;57.698;11.946;2023-07-20T08:31:29;3.45;;;0.60;;
13439;SDS011;6792;57.698;11.946;2023-07-20T08:33:58;3.20;;;0.78;;
13439;SDS011;6792;57.698;11.946;2023-07-20T08:36:27;2.27;;;0.50;;
13439;SDS011;6792;57.698;11.946;2023-07-20T08:38:57;1.10;;;0.40;;
13439;SDS011;6792;57.698;11.946;2023-07-20T08:41:26;2.50;;;0.47;;
13439;SDS011;6792;57.698;11.946;2023-07-20T08:43:56;3.50;;;0.40;;
13439;SDS011;6792;57.698;11.946;2023-07-20T08:46:26;1.27;;;0.30;;
13439;SDS011;6792;57.698;11.946;2023-07-20T08:48:56;0.72;;;0.30;;
13439;SDS011;6792;57.698;11.946;2023-07-20T08:51:26;3.08;;;0.40;;
13439;SDS011;6792;57.698;11.946;2023-07-20T08:53:56;3.25;;;0.40;;
13439;SDS011;6792;57.698;11.946;2023-07-20T08:56:26;1.82;;;0.47;;
13439;SDS011;6792;57.698;11.946;2023-07-20T08:58:56;3.70;;;0.60;;
13439;SDS011;6792;57.698;11.946;2023-07-20T09:01:26;1.77;;;0.50;;
13439;SDS011;6792;57.698;11.946;2023-07-20T09:03:56;2.20;;;0.57;;
13439;SDS011;6792;57.698;11.946;2023-07-20T09:06:26;1.17;;;0.40;;
13439;SDS011;6792;57.698;11.946;2023-07-20T09:08:55;1.57;;;0.57;;
13439;SDS011;6792;57.698;11.946;2023-07-20T09:11:25;2.25;;;0.53;;
13439;SDS011;6792;57.698;11.946;2023-07-20T09:14:02;1.40;;;0.70;;
13439;SDS011;6792;57.698;11.946;2023-07-20T09:16:33;3.12;;;0.50;;
13439;SDS011;6792;57.698;11.946;2023-07-20T09:19:17;3.95;;;0.80;;
13439;SDS011;6792;57.698;11.946;2023-07-20T09:21:49;2.10;;;1.07;;
13439;SDS011;6792;57.698;11.946;2023-07-20T09:24:20;4.55;;;1.32;;
13439;SDS011;6792;57.698;11.946;2023-07-20T09:26:49;3.08;;;0.50;;
13439;SDS011;6792;57.698;11.946;2023-07-20T09:29:19;2.05;;;0.60;;
13439;SDS011;6792;57.698;11.946;2023-07-20T09:31:58;2.87;;;0.60;;
13439;SDS011;6792;57.698;11.946;2023-07-20T09:34:29;3.27;;;0.57;;
13439;SDS011;6792;57.698;11.946;2023-07-20T09:36:58;0.47;;;0.20;;
13439;SDS011;6792;57.698;11.946;2023-07-20T09:39:28;1.20;;;0.42;;
13439;SDS011;6792;57.698;11.946;2023-07-20T09:42:00;3.58;;;0.37;;
13439;SDS011;6792;57.698;11.946;2023-07-20T09:44:31;2.25;;;0.53;;
13439;SDS011;6792;57.698;11.946;2023-07-20T09:47:02;0.93;;;0.40;;
13439;SDS011;6792;57.698;11.946;2023-07-20T09:49:32;3.98;;;0.50;;
13439;SDS011;6792;57.698;11.946;2023-07-20T09:52:03;1.70;;;0.37;;
13439;SDS011;6792;57.698;11.946;2023-07-20T09:54:33;1.65;;;0.40;;
13439;SDS011;6792;57.698;11.946;2023-07-20T09:57:03;2.33;;;0.50;;
13439;SDS011;6792;57.698;11.946;2023-07-20T09:59:35;0.80;;;0.33;;
13439;SDS011;6792;57.698;11.946;2023-07-20T10:02:14;3.05;;;0.53;;
13439;SDS011;6792;57.698;11.946;2023-07-20T10:04:37;6.45;;;0.80;;
13439;SDS011;6792;57.698;11.946;2023-07-20T10:07:09;1.40;;;0.60;;
13439;SDS011;6792;57.698;11.946;2023-07-20T10:09:39;2.00;;;0.47;;
13439;SDS011;6792;57.698;11.946;2023-07-20T10:12:09;0.95;;;0.40;;
13439;SDS011;6792;57.698;11.946;2023-07-20T10:14:41;1.67;;;0.20;;
13439;SDS011;6792;57.698;11.946;2023-07-20T10:17:11;3.10;;;0.50;;
13439;SDS011;6792;57.698;11.946;2023-07-20T10:19:43;1.02;;;0.30;;
13439;SDS011;6792;57.698;11.946;2023-07-20T10:22:16;2.35;;;0.45;;
13439;SDS011;6792;57.698;11.946;2023-07-20T10:24:47;2.65;;;0.33;;
13439;SDS011;6792;57.698;11.946;2023-07-20T10:27:19;0.95;;;0.40;;
13439;SDS011;6792;57.698;11.946;2023-07-20T10:29:48;0.68;;;0.37;;
13439;SDS011;6792;57.698;11.946;2023-07-20T10:32:21;1.95;;;0.50;;
13439;SDS011;6792;57.698;11.946;2023-07-20T10:34:51;0.37;;;0.20;;
13439;SDS011;6792;57.698;11.946;2023-07-20T10:40:27;3.70;;;0.60;;
13439;SDS011;6792;57.698;11.946;2023-07-20T10:42:59;1.00;;;0.45;;
13439;SDS011;6792;57.698;11.946;2023-07-20T10:45:34;1.65;;;0.65;;
13439;SDS011;6792;57.698;11.946;2023-07-20T10:48:17;1.32;;;0.33;;
13439;SDS011;6792;57.698;11.946;2023-07-20T10:53:40;3.22;;;0.40;;
13439;SDS011;6792;57.698;11.946;2023-07-20T10:56:12;0.53;;;0.35;;
13439;SDS011;6792;57.698;11.946;2023-07-20T10:58:43;1.65;;;0.35;;
13439;SDS011;6792;57.698;11.946;2023-07-20T11:01:13;1.65;;;0.37;;
13439;SDS011;6792;57.698;11.946;2023-07-20T11:03:43;4.05;;;0.55;;
13439;SDS011;6792;57.698;11.946;2023-07-20T11:09:16;1.05;;;0.37;;
13439;SDS011;6792;57.698;11.946;2023-07-20T11:11:47;3.37;;;0.35;;
13439;SDS011;6792;57.698;11.946;2023-07-20T11:14:23;3.83;;;0.60;;
13439;SDS011;6792;57.698;11.946;2023-07-20T11:16:57;3.42;;;0.53;;
13439;SDS011;6792;57.698;11.946;2023-07-20T11:19:29;3.40;;;0.40;;
13439;SDS011;6792;57.698;11.946;2023-07-20T11:21:58;1.62;;;0.30;;
13439;SDS011;6792;57.698;11.946;2023-07-20T11:24:29;2.45;;;0.30;;
13439;SDS011;6792;57.698;11.946;2023-07-20T11:26:59;0.53;;;0.28;;
13439;SDS011;6792;57.698;11.946;2023-07-20T11:29:28;1.82;;;0.35;;
13439;SDS011;6792;57.698;11.946;2023-07-20T11:31:57;1.20;;;0.40;;
13439;SDS011;6792;57.698;11.946;2023-07-20T11:34:29;1.52;;;0.20;;
13439;SDS011;6792;57.698;11.946;2023-07-20T11:36:59;2.30;;;0.40;;
13439;SDS011;6792;57.698;11.946;2023-07-20T11:39:29;1.98;;;0.40;;
13439;SDS011;6792;57.698;11.946;2023-07-20T11:41:58;3.37;;;0.33;;
13439;SDS011;6792;57.698;11.946;2023-07-20T11:44:28;5.92;;;0.50;;
13439;SDS011;6792;57.698;11.946;2023-07-20T11:47:00;2.40;;;0.50;;
13439;SDS011;6792;57.698;11.946;2023-07-20T11:49:34;2.47;;;0.30;;
13439;SDS011;6792;57.698;11.946;2023-07-20T11:52:07;1.32;;;0.30;;
13439;SDS011;6792;57.698;11.946;2023-07-20T11:54:38;0.82;;;0.33;;
13439;SDS011;6792;57.698;11.946;2023-07-20T11:57:08;0.80;;;0.30;;
13439;SDS011;6792;57.698;11.946;2023-07-20T11:59:53;1.85;;;0.40;;
13439;SDS011;6792;57.698;11.946;2023-07-20T12:02:23;2.92;;;0.60;;
13439;SDS011;6792;57.698;11.946;2023-07-20T12:04:54;2.92;;;0.55;;
13439;SDS011;6792;57.698;11.946;2023-07-20T12:07:26;2.70;;;0.65;;
13439;SDS011;6792;57.698;11.946;2023-07-20T12:10:05;2.77;;;0.78;;
13439;SDS011;6792;57.698;11.946;2023-07-20T12:12:38;3.12;;;0.93;;
13439;SDS011;6792;57.698;11.946;2023-07-20T12:15:15;2.05;;;0.40;;
13439;SDS011;6792;57.698;11.946;2023-07-20T12:17:45;3.00;;;0.70;;
13439;SDS011;6792;57.698;11.946;2023-07-20T12:20:24;3.72;;;0.45;;
13439;SDS011;6792;57.698;11.946;2023-07-20T12:22:56;2.75;;;0.53;;
13439;SDS011;6792;57.698;11.946;2023-07-20T12:28:32;3.12;;;0.60;;
13439;SDS011;6792;57.698;11.946;2023-07-20T12:31:02;3.83;;;0.82;;
13439;SDS011;6792;57.698;11.946;2023-07-20T12:33:32;2.67;;;0.70;;
13439;SDS011;6792;57.698;11.946;2023-07-20T12:36:01;2.98;;;1.02;;
13439;SDS011;6792;57.698;11.946;2023-07-20T12:38:32;4.92;;;0.90;;
13439;SDS011;6792;57.698;11.946;2023-07-20T12:41:02;4.92;;;0.68;;
13439;SDS011;6792;57.698;11.946;2023-07-20T12:43:31;3.65;;;0.60;;
13439;SDS011;6792;57.698;11.946;2023-07-20T12:46:00;2.47;;;0.50;;
13439;SDS011;6792;57.698;11.946;2023-07-20T12:48:30;7.92;;;1.05;;
13439;SDS011;6792;57.698;11.946;2023-07-20T12:50:59;4.40;;;0.68;;
13439;SDS011;6792;57.698;11.946;2023-07-20T12:53:30;5.90;;;1.40;;
13439;SDS011;6792;57.698;11.946;2023-07-20T12:56:00;5.03;;;1.27;;
13439;SDS011;6792;57.698;11.946;2023-07-20T12:58:29;5.67;;;1.00;;
13439;SDS011;6792;57.698;11.946;2023-07-20T13:00:58;6.60;;;0.95;;
13439;SDS011;6792;57.698;11.946;2023-07-20T13:03:27;3.58;;;0.90;;
13439;SDS011;6792;57.698;11.946;2023-07-20T13:05:57;1.47;;;0.50;;
13439;SDS011;6792;57.698;11.946;2023-07-20T13:08:27;4.90;;;0.82;;
13439;SDS011;6792;57.698;11.946;2023-07-20T13:10:56;2.77;;;0.70;;
13439;SDS011;6792;57.698;11.946;2023-07-20T13:13:27;3.30;;;0.68;;
13439;SDS011;6792;57.698;11.946;2023-07-20T13:15:56;2.40;;;0.53;;
13439;SDS011;6792;57.698;11.946;2023-07-20T13:18:25;3.55;;;0.60;;
13439;SDS011;6792;57.698;11.946;2023-07-20T13:20:54;2.15;;;0.45;;
13439;SDS011;6792;57.698;11.946;2023-07-20T13:23:23;3.42;;;0.68;;
13439;SDS011;6792;57.698;11.946;2023-07-20T13:25:53;3.75;;;0.80;;
13439;SDS011;6792;57.698;11.946;2023-07-20T13:28:22;5.40;;;0.60;;
13439;SDS011;6792;57.698;11.946;2023-07-20T13:30:51;2.37;;;0.50;;
13439;SDS011;6792;57.698;11.946;2023-07-20T13:33:20;4.25;;;1.02;;
13439;SDS011;6792;57.698;11.946;2023-07-20T13:35:49;3.27;;;0.62;;
13439;SDS011;6792;57.698;11.946;2023-07-20T13:38:18;4.05;;;0.98;;
13439;SDS011;6792;57.698;11.946;2023-07-20T13:40:48;4.83;;;0.65;;
13439;SDS011;6792;57.698;11.946;2023-07-20T13:43:18;7.12;;;0.80;;
13439;SDS011;6792;57.698;11.946;2023-07-20T13:45:49;2.02;;;0.60;;
13439;SDS011;6792;57.698;11.946;2023-07-20T13:48:19;2.72;;;0.62;;
13439;SDS011;6792;57.698;11.946;2023-07-20T13:50:52;1.62;;;0.40;;
13439;SDS011;6792;57.698;11.946;2023-07-20T13:53:21;3.17;;;0.88;;
13439;SDS011;6792;57.698;11.946;2023-07-20T13:55:51;6.35;;;0.88;;
13439;SDS011;6792;57.698;11.946;2023-07-20T13:58:20;1.50;;;0.50;;
13439;SDS011;6792;57.698;11.946;2023-07-20T14:00:51;3.62;;;1.10;;
13439;SDS011;6792;57.698;11.946;2023-07-20T14:03:21;2.87;;;0.68;;
13439;SDS011;6792;57.698;11.946;2023-07-20T14:05:50;2.50;;;0.60;;
13439;SDS011;6792;57.698;11.946;2023-07-20T14:08:20;7.08;;;0.80;;
13439;SDS011;6792;57.698;11.946;2023-07-20T14:10:52;1.65;;;0.45;;
13439;SDS011;6792;57.698;11.946;2023-07-20T14:13:22;5.00;;;0.82;;
13439;SDS011;6792;57.698;11.946;2023-07-20T14:15:51;3.25;;;0.70;;
13439;SDS011;6792;57.698;11.946;2023-07-20T14:18:20;3.52;;;0.70;;
13439;SDS011;6792;57.698;11.946;2023-07-20T14:20:49;2.58;;;0.60;;
13439;SDS011;6792;57.698;11.946;2023-07-20T14:23:19;1.92;;;0.90;;
13439;SDS011;6792;57.698;11.946;2023-07-20T14:25:48;3.95;;;0.80;;
13439;SDS011;6792;57.698;11.946;2023-07-20T14:28:18;5.08;;;1.00;;
13439;SDS011;6792;57.698;11.946;2023-07-20T14:30:48;3.83;;;0.88;;
13439;SDS011;6792;57.698;11.946;2023-07-20T14:33:20;3.47;;;0.70;;
13439;SDS011;6792;57.698;11.946;2023-07-20T14:35:52;5.75;;;1.15;;
13439;SDS011;6792;57.698;11.946;2023-07-20T14:38:21;3.85;;;0.80;;
13439;SDS011;6792;57.698;11.946;2023-07-20T14:40:50;2.83;;;0.82;;
13439;SDS011;6792;57.698;11.946;2023-07-20T14:43:20;4.87;;;0.82;;
13439;SDS011;6792;57.698;11.946;2023-07-20T14:45:51;5.78;;;1.10;;
13439;SDS011;6792;57.698;11.946;2023-07-20T14:48:21;2.58;;;0.95;;
13439;SDS011;6792;57.698;11.946;2023-07-20T14:50:52;3.58;;;0.80;;
13439;SDS011;6792;57.698;11.946;2023-07-20T14:53:26;3.52;;;0.70;;
13439;SDS011;6792;57.698;11.946;2023-07-20T14:56:00;2.60;;;0.53;;
13439;SDS011;6792;57.698;11.946;2023-07-20T14:58:31;5.35;;;1.00;;
13439;SDS011;6792;57.698;11.946;2023-07-20T15:01:20;4.55;;;0.72;;
13439;SDS011;6792;57.698;11.946;2023-07-20T15:03:53;4.10;;;0.72;;
13439;SDS011;6792;57.698;11.946;2023-07-20T15:06:30;2.08;;;0.70;;
13439;SDS011;6792;57.698;11.946;2023-07-20T15:09:07;4.17;;;0.90;;
13439;SDS011;6792;57.698;11.946;2023-07-20T15:11:51;5.22;;;0.98;;
13439;SDS011;6792;57.698;11.946;2023-07-20T15:14:23;2.98;;;0.90;;
13439;SDS011;6792;57.698;11.946;2023-07-20T15:16:56;3.12;;;1.00;;
13439;SDS011;6792;57.698;11.946;2023-07-20T15:19:30;2.98;;;1.00;;